createdAt,value
2022-09-03T00:02:15.562Z,6.80
2022-09-03T00:05:27.838Z,7.00
2022-09-03T00:08:40.835Z,7.33
2022-09-03T00:11:54.615Z,6.80
2022-09-03T00:15:04.654Z,6.57
2022-09-03T00:18:15.362Z,5.83
2022-09-03T00:21:40.361Z,6.00
2022-09-03T00:24:47.628Z,5.90
2022-09-03T00:27:58.112Z,5.90
2022-09-03T00:31:12.773Z,5.73
2022-09-03T00:34:25.539Z,6.63
2022-09-03T00:37:37.983Z,6.83
2022-09-03T00:40:57.636Z,12.43
2022-09-03T00:44:26.636Z,6.53
2022-09-03T00:47:41.164Z,6.13
2022-09-03T00:51:02.155Z,5.63
2022-09-03T00:54:18.429Z,5.93
2022-09-03T00:57:35.519Z,6.57
2022-09-03T01:00:44.000Z,5.50
2022-09-03T01:03:59.048Z,11.50
2022-09-03T01:07:15.292Z,6.67
2022-09-03T01:10:32.461Z,6.53
2022-09-03T01:13:45.740Z,7.00
2022-09-03T01:16:58.681Z,5.40
2022-09-03T01:20:28.758Z,6.17
2022-09-03T01:23:58.171Z,6.83
2022-09-03T01:27:26.103Z,6.37
2022-09-03T01:30:39.134Z,6.57
2022-09-03T01:33:55.099Z,8.70
2022-09-03T01:37:11.099Z,6.70
2022-09-03T01:40:28.407Z,10.97
2022-09-03T01:43:45.340Z,5.83
2022-09-03T01:47:03.277Z,6.17
2022-09-03T01:50:19.266Z,7.17
2022-09-03T01:53:40.676Z,6.00
2022-09-03T01:56:59.439Z,6.73
2022-09-03T02:00:10.659Z,6.53
2022-09-03T02:03:19.028Z,14.20
2022-09-03T02:06:26.079Z,6.93
2022-09-03T02:09:33.115Z,7.10
2022-09-03T02:12:43.229Z,9.17
2022-09-03T02:15:53.120Z,5.67
2022-09-03T02:19:04.786Z,6.10
2022-09-03T02:22:11.432Z,6.50
2022-09-03T02:25:18.623Z,5.83
2022-09-03T02:28:25.878Z,6.07
2022-09-03T02:31:32.375Z,6.10
2022-09-03T02:34:40.609Z,6.10
2022-09-03T02:37:47.113Z,6.13
2022-09-03T02:40:54.626Z,5.53
2022-09-03T02:44:04.794Z,5.43
2022-09-03T02:47:11.247Z,5.90
2022-09-03T02:50:19.240Z,6.73
2022-09-03T02:53:26.052Z,5.60
2022-09-03T02:56:32.137Z,4.57
2022-09-03T02:59:39.928Z,6.10
2022-09-03T03:02:47.197Z,8.70
2022-09-03T03:05:56.862Z,5.53
2022-09-03T03:09:05.998Z,5.40
2022-09-03T03:12:11.974Z,12.17
2022-09-03T03:15:18.146Z,5.13
2022-09-03T03:18:24.471Z,6.20
2022-09-03T03:21:32.639Z,6.20
2022-09-03T03:24:38.960Z,6.93
2022-09-03T03:27:45.688Z,6.73
2022-09-03T03:30:52.303Z,5.90
2022-09-03T03:34:00.023Z,6.23
2022-09-03T03:37:07.698Z,6.17
2022-09-03T03:40:15.521Z,5.60
2022-09-03T03:43:21.818Z,6.53
2022-09-03T03:46:31.794Z,7.33
2022-09-03T03:49:37.772Z,7.87
2022-09-03T03:52:45.527Z,9.07
2022-09-03T03:55:59.014Z,7.60
2022-09-03T03:59:05.746Z,6.87
2022-09-03T04:02:12.209Z,7.97
2022-09-03T04:05:18.655Z,7.37
2022-09-03T04:08:31.183Z,6.57
2022-09-03T04:11:37.499Z,14.60
2022-09-03T04:14:43.552Z,8.23
2022-09-03T04:17:49.888Z,6.00
2022-09-03T04:21:01.055Z,11.33
2022-09-03T04:24:09.167Z,6.33
2022-09-03T04:27:15.177Z,6.80
2022-09-03T04:30:22.149Z,6.37
2022-09-03T04:33:28.947Z,5.53
2022-09-03T04:36:35.180Z,5.87
2022-09-03T04:39:43.013Z,5.13
2022-09-03T04:42:49.407Z,6.67
2022-09-03T04:45:59.631Z,6.30
2022-09-03T04:49:07.361Z,6.30
2022-09-03T04:52:13.440Z,8.77
2022-09-03T04:55:20.943Z,8.80
2022-09-03T04:58:27.271Z,8.13
2022-09-03T05:01:36.094Z,8.07
2022-09-03T05:04:42.208Z,6.23
2022-09-03T05:07:48.307Z,8.20
2022-09-03T05:11:01.478Z,7.80
2022-09-03T05:14:11.863Z,8.07
2022-09-03T05:17:18.206Z,10.10
2022-09-03T05:20:25.276Z,16.13
2022-09-03T05:23:37.475Z,7.33
2022-09-03T05:26:45.628Z,7.30
2022-09-03T05:29:51.910Z,8.20
2022-09-03T05:32:58.360Z,8.10
2022-09-03T05:36:06.404Z,9.00
2022-09-03T05:39:12.743Z,10.27
2022-09-03T05:42:20.599Z,8.90
2022-09-03T05:45:27.150Z,10.33
2022-09-03T05:48:34.664Z,11.50
2022-09-03T05:51:41.175Z,9.67
2022-09-03T05:54:48.166Z,9.83
2022-09-03T05:57:55.795Z,9.87
2022-09-03T06:01:02.484Z,9.53
2022-09-03T06:04:10.836Z,10.03
2022-09-03T06:07:17.148Z,9.90
2022-09-03T06:10:26.267Z,10.70
2022-09-03T06:13:36.547Z,9.33
2022-09-03T06:16:44.482Z,9.77
2022-09-03T06:19:51.103Z,9.83
2022-09-03T06:22:57.285Z,10.70
2022-09-03T06:26:06.037Z,10.43
2022-09-03T06:29:14.384Z,10.07
2022-09-03T06:32:20.684Z,10.60
2022-09-03T06:35:26.880Z,9.13
2022-09-03T06:38:37.089Z,8.63
2022-09-03T06:41:43.929Z,8.10
2022-09-03T06:44:52.107Z,8.27
2022-09-03T06:47:58.633Z,8.63
2022-09-03T06:51:07.001Z,8.57
2022-09-03T06:54:15.956Z,8.83
2022-09-03T06:57:22.008Z,8.57
2022-09-03T07:00:49.307Z,10.13
2022-09-03T07:03:57.584Z,9.23
2022-09-03T07:07:03.806Z,10.53
2022-09-03T07:10:14.083Z,9.33
2022-09-03T07:13:20.293Z,9.50
2022-09-03T07:16:29.348Z,8.33
2022-09-03T07:19:35.540Z,11.10
2022-09-03T07:22:41.538Z,8.00
2022-09-03T07:25:54.812Z,8.70
2022-09-03T07:29:02.018Z,9.73
2022-09-03T07:32:09.959Z,9.33
2022-09-03T07:35:16.661Z,9.37
2022-09-03T07:38:24.399Z,11.03
2022-09-03T07:41:33.060Z,7.93
2022-09-03T07:44:39.646Z,8.10
2022-09-03T07:47:51.251Z,7.63
2022-09-03T07:51:01.367Z,7.77
2022-09-03T07:54:11.214Z,9.23
2022-09-03T07:57:17.746Z,9.30
2022-09-03T08:00:24.559Z,8.90
2022-09-03T08:03:32.274Z,11.87
2022-09-03T08:06:39.756Z,11.33
2022-09-03T08:09:46.259Z,15.67
2022-09-03T08:12:52.870Z,15.37
2022-09-03T08:16:00.676Z,7.33
2022-09-03T08:19:09.065Z,10.23
2022-09-03T08:22:15.287Z,12.40
2022-09-03T08:25:21.747Z,7.33
2022-09-03T08:28:27.928Z,6.83
2022-09-03T08:31:36.812Z,5.73
2022-09-03T08:34:44.903Z,6.87
2022-09-03T08:37:56.789Z,9.40
2022-09-03T08:41:10.503Z,6.40
2022-09-03T08:44:25.573Z,9.90
2022-09-03T08:47:35.359Z,6.43
2022-09-03T08:50:46.740Z,7.00
2022-09-03T08:53:57.547Z,6.07
2022-09-03T08:57:05.259Z,6.80
2022-09-03T09:00:12.827Z,6.20
2022-09-03T09:03:43.796Z,6.33
2022-09-03T09:06:58.238Z,6.33
2022-09-03T09:10:13.250Z,6.87
2022-09-03T09:13:28.927Z,5.77
2022-09-03T09:16:45.570Z,7.97
2022-09-03T09:20:03.199Z,13.00
2022-09-03T09:23:15.706Z,8.37
2022-09-03T09:26:23.723Z,7.93
2022-09-03T09:29:33.807Z,6.27
2022-09-03T09:32:40.059Z,8.60
2022-09-03T09:35:46.661Z,7.43
2022-09-03T09:38:54.712Z,7.33
2022-09-03T09:42:02.427Z,7.80
2022-09-03T09:45:11.423Z,7.87
2022-09-03T09:48:26.528Z,7.87
2022-09-03T09:51:33.588Z,7.87
2022-09-03T09:54:43.792Z,7.57
2022-09-03T09:57:54.839Z,8.07
2022-09-03T10:01:04.971Z,7.33
2022-09-03T10:04:13.135Z,6.77
2022-09-03T10:07:26.328Z,7.40
2022-09-03T10:10:38.056Z,10.33
2022-09-03T10:13:48.246Z,14.70
2022-09-03T10:17:02.320Z,6.10
2022-09-03T10:20:31.691Z,9.53
2022-09-03T10:23:50.356Z,5.70
2022-09-03T10:26:58.574Z,6.97
2022-09-03T10:30:06.375Z,6.50
2022-09-03T10:33:20.422Z,5.93
2022-09-03T10:36:30.109Z,6.07
2022-09-03T10:39:50.207Z,6.50
2022-09-03T10:43:17.038Z,5.67
2022-09-03T10:46:28.732Z,5.50
2022-09-03T10:49:48.531Z,6.33
2022-09-03T10:53:10.887Z,8.60
2022-09-03T10:56:22.915Z,5.97
2022-09-03T10:59:49.146Z,10.73
2022-09-03T11:03:23.974Z,5.27
2022-09-03T11:06:31.983Z,9.20
2022-09-03T11:09:43.064Z,5.70
2022-09-03T11:12:56.479Z,13.03
2022-09-03T11:16:12.592Z,8.53
2022-09-03T11:19:22.051Z,5.00
2022-09-03T11:22:29.921Z,12.90
2022-09-03T11:25:39.444Z,11.77
2022-09-03T11:28:56.238Z,4.07
2022-09-03T11:32:11.150Z,4.87
2022-09-03T11:35:25.757Z,6.67
2022-09-03T11:38:32.420Z,4.77
2022-09-03T11:41:39.915Z,5.10
2022-09-03T11:44:51.491Z,4.88
2022-09-03T11:48:00.141Z,4.53
2022-09-03T11:51:18.087Z,5.07
2022-09-03T11:54:28.098Z,6.00
2022-09-03T11:57:41.690Z,4.38
2022-09-03T12:00:53.325Z,4.27
2022-09-03T12:04:03.660Z,4.15
2022-09-03T12:07:36.023Z,3.93
2022-09-03T12:10:54.576Z,4.47
2022-09-03T12:14:11.626Z,4.23
2022-09-03T12:17:30.484Z,6.30
2022-09-03T12:20:37.900Z,3.27
2022-09-03T12:23:45.819Z,4.07
2022-09-03T12:26:52.154Z,3.50
2022-09-03T12:30:00.941Z,3.87
2022-09-03T12:33:08.695Z,3.03
2022-09-03T12:36:16.431Z,4.17
2022-09-03T12:42:52.230Z,3.33
2022-09-03T12:46:14.234Z,2.80
2022-09-03T12:49:36.488Z,3.60
2022-09-03T12:52:47.772Z,2.73
2022-09-03T12:55:57.250Z,3.13
2022-09-03T12:59:08.077Z,3.50
2022-09-03T13:02:22.433Z,3.17
2022-09-03T13:05:33.666Z,3.20
2022-09-03T13:08:46.795Z,2.73
2022-09-03T13:11:55.632Z,2.60
2022-09-03T13:15:09.054Z,3.05
2022-09-03T13:18:27.172Z,2.50
2022-09-03T13:21:43.916Z,5.55
2022-09-03T13:25:21.922Z,2.88
2022-09-03T13:28:41.980Z,2.53
2022-09-03T13:31:52.072Z,2.40
2022-09-03T13:35:03.182Z,2.57
2022-09-03T13:38:21.056Z,2.30
2022-09-03T13:41:38.946Z,2.40
2022-09-03T13:44:50.290Z,2.80
2022-09-03T13:48:18.886Z,2.40
2022-09-03T13:51:29.894Z,2.13
2022-09-03T13:54:49.121Z,2.65
2022-09-03T13:58:02.192Z,3.05
2022-09-03T14:01:18.516Z,2.20
2022-09-03T14:04:35.392Z,2.03
2022-09-03T14:08:03.527Z,3.30
2022-09-03T14:11:23.012Z,2.50
2022-09-03T14:14:42.438Z,2.20
2022-09-03T14:17:57.539Z,2.20
2022-09-03T14:21:06.400Z,3.92
2022-09-03T14:24:18.399Z,2.90
2022-09-03T14:27:26.446Z,2.85
2022-09-03T14:30:44.515Z,3.15
2022-09-03T14:34:00.522Z,3.15
2022-09-03T14:37:15.592Z,3.30
2022-09-03T14:40:31.151Z,2.80
2022-09-03T14:44:06.039Z,2.85
2022-09-03T14:47:29.928Z,3.10
2022-09-03T14:50:51.794Z,3.40
2022-09-03T14:54:29.067Z,3.00
2022-09-03T14:57:50.498Z,3.80
2022-09-03T15:01:02.846Z,2.97
2022-09-03T15:04:41.673Z,2.85
2022-09-03T15:07:54.100Z,2.90
2022-09-03T15:11:03.334Z,3.60
2022-09-03T15:14:15.998Z,3.27
2022-09-03T15:17:34.015Z,3.13
2022-09-03T15:20:51.698Z,5.30
2022-09-03T15:24:07.471Z,3.40
2022-09-03T15:27:37.038Z,3.20
2022-09-03T15:30:50.522Z,3.27
2022-09-03T15:34:09.088Z,3.67
2022-09-03T15:37:29.584Z,3.10
2022-09-03T15:40:39.107Z,3.43
2022-09-03T15:43:50.984Z,7.70
2022-09-03T15:47:01.811Z,3.47
2022-09-03T15:50:20.886Z,3.40
2022-09-03T15:53:36.859Z,4.90
2022-09-03T15:56:49.426Z,3.17
2022-09-03T16:00:02.521Z,3.57
2022-09-03T16:03:20.439Z,4.37
2022-09-03T16:06:38.227Z,4.60
2022-09-03T16:10:23.165Z,3.07
2022-09-03T16:13:37.563Z,2.83
2022-09-03T16:16:57.051Z,3.93
2022-09-03T16:20:07.551Z,3.30
2022-09-03T16:23:19.434Z,3.33
2022-09-03T16:26:33.719Z,3.40
2022-09-03T16:29:41.147Z,5.33
2022-09-03T16:33:03.712Z,3.60
2022-09-03T16:36:30.985Z,3.00
2022-09-03T16:39:52.398Z,3.00
2022-09-03T16:43:29.830Z,2.90
2022-09-03T16:46:41.902Z,3.03
2022-09-03T16:49:56.770Z,4.00
2022-09-03T16:53:10.854Z,3.90
2022-09-03T16:56:38.402Z,3.50
2022-09-03T17:00:09.639Z,4.13
2022-09-03T17:03:35.923Z,3.43
2022-09-03T17:06:57.779Z,4.03
2022-09-03T17:10:12.488Z,3.60
2022-09-03T17:13:46.926Z,7.77
2022-09-03T17:17:06.512Z,7.93
2022-09-03T17:20:16.642Z,2.53
2022-09-03T17:23:41.450Z,4.00
2022-09-03T17:26:56.133Z,3.23
2022-09-03T17:30:08.559Z,3.80
2022-09-03T17:34:02.612Z,4.10
2022-09-03T17:37:23.646Z,4.43
2022-09-03T17:40:41.864Z,3.67
2022-09-03T17:43:56.274Z,3.33
2022-09-03T17:47:13.639Z,3.20
2022-09-03T17:50:25.448Z,3.27
2022-09-03T17:53:39.982Z,2.87
2022-09-03T17:56:56.512Z,3.93
2022-09-03T18:00:06.440Z,2.40
2022-09-03T18:03:19.459Z,3.90
2022-09-03T18:06:34.539Z,4.00
2022-09-03T18:09:52.055Z,4.43
2022-09-03T18:13:08.330Z,4.00
2022-09-03T18:16:20.629Z,3.50
2022-09-03T18:19:53.302Z,6.90
2022-09-03T18:23:22.263Z,3.40
2022-09-03T18:26:53.766Z,3.30
2022-09-03T18:30:21.281Z,2.90
2022-09-03T18:33:45.822Z,4.83
2022-09-03T18:37:09.670Z,3.20
2022-09-03T18:40:41.284Z,3.30
2022-09-03T18:44:15.675Z,3.17
2022-09-03T18:48:05.493Z,4.33
2022-09-03T18:51:44.434Z,3.60
2022-09-03T18:55:20.403Z,3.17
2022-09-03T18:58:53.830Z,3.30
2022-09-03T19:02:28.320Z,2.97
2022-09-03T19:06:04.343Z,3.53
2022-09-03T19:09:41.063Z,3.40
2022-09-03T19:17:20.606Z,11.43
2022-09-03T19:20:49.158Z,4.23
2022-09-03T19:24:18.827Z,4.43
2022-09-03T19:27:59.330Z,5.77
2022-09-03T19:31:51.290Z,5.10
2022-09-03T19:35:28.340Z,3.73
2022-09-03T19:39:08.890Z,8.67
2022-09-03T19:42:41.680Z,9.00
2022-09-03T19:46:18.286Z,3.53
2022-09-03T19:49:55.689Z,14.53
2022-09-03T19:53:22.413Z,3.73
2022-09-03T19:56:48.245Z,3.77
2022-09-03T20:00:12.089Z,5.13
2022-09-03T20:03:36.068Z,4.50
2022-09-03T20:07:00.956Z,5.53
2022-09-03T20:10:25.254Z,5.23
2022-09-03T20:13:54.908Z,5.70
2022-09-03T20:17:14.086Z,5.70
2022-09-03T20:20:28.483Z,5.30
2022-09-03T20:23:40.358Z,5.60
2022-09-03T20:26:55.637Z,4.60
2022-09-03T20:30:07.906Z,5.27
2022-09-03T20:33:39.231Z,5.10
2022-09-03T20:36:57.863Z,5.03
2022-09-03T20:40:28.745Z,5.63
2022-09-03T20:44:00.711Z,6.23
2022-09-03T20:47:23.251Z,5.27
2022-09-03T20:50:45.920Z,5.70
2022-09-03T20:54:11.357Z,5.57
2022-09-03T20:57:29.582Z,5.77
2022-09-03T21:00:49.364Z,5.50
2022-09-03T21:04:04.814Z,4.73
2022-09-03T21:07:21.007Z,5.10
2022-09-03T21:10:33.805Z,5.50
2022-09-03T21:13:49.144Z,12.17
2022-09-03T21:17:09.006Z,5.83
2022-09-03T21:20:35.599Z,5.50
2022-09-03T21:23:44.902Z,6.23
2022-09-03T21:26:54.986Z,6.10
2022-09-03T21:30:06.523Z,6.43
2022-09-03T21:33:18.404Z,6.80
2022-09-03T21:36:31.573Z,7.20
2022-09-03T21:39:44.326Z,5.77
2022-09-03T21:42:59.925Z,5.93
2022-09-03T21:46:10.826Z,5.87
2022-09-03T21:49:24.043Z,6.77
2022-09-03T21:52:40.763Z,6.13
2022-09-03T21:56:02.314Z,7.47
2022-09-03T21:59:19.863Z,6.17
2022-09-03T22:02:27.654Z,5.90
2022-09-03T22:05:46.233Z,6.30
2022-09-03T22:08:59.656Z,8.23
2022-09-03T22:12:10.113Z,5.87
2022-09-03T22:15:16.608Z,5.80
2022-09-03T22:18:29.189Z,5.47
2022-09-03T22:21:40.195Z,6.20
2022-09-03T22:24:55.342Z,5.73
2022-09-03T22:28:07.575Z,6.87
2022-09-03T22:31:24.815Z,5.90
2022-09-03T22:34:45.035Z,4.80
2022-09-03T22:38:04.611Z,6.13
2022-09-03T22:41:23.976Z,4.87
2022-09-03T22:44:47.414Z,5.63
2022-09-03T22:48:04.943Z,5.57
2022-09-03T22:51:12.850Z,4.97
2022-09-03T22:54:34.631Z,7.40
2022-09-03T22:57:53.389Z,5.67
2022-09-03T23:01:06.946Z,6.07
2022-09-03T23:04:21.541Z,5.50
2022-09-03T23:07:35.119Z,5.57
2022-09-03T23:11:03.347Z,5.70
2022-09-03T23:14:14.255Z,5.83
2022-09-03T23:20:34.112Z,5.50
2022-09-03T23:23:47.575Z,5.50
2022-09-03T23:26:54.351Z,6.20
2022-09-03T23:30:03.774Z,6.27
2022-09-03T23:33:10.129Z,5.23
2022-09-03T23:36:50.969Z,6.10
2022-09-03T23:40:04.562Z,6.20
2022-09-03T23:43:47.643Z,5.57
2022-09-03T23:47:10.153Z,5.83
2022-09-03T23:50:30.335Z,5.13
2022-09-03T23:53:52.239Z,5.37
2022-09-03T23:57:08.363Z,5.37
